sensor_id;sensor_type;location;lat;lon;timestamp;P1;durP1;ratioP1;P2;durP2;ratioP2
10216;SDS011;5152;59.674;16.838;2022-10-31T00:01:24;1.90;;;1.17;;
10216;SDS011;5152;59.674;16.838;2022-10-31T00:03:52;2.00;;;1.60;;
10216;SDS011;5152;59.674;16.838;2022-10-31T00:06:18;1.60;;;1.43;;
10216;SDS011;5152;59.674;16.838;2022-10-31T00:08:45;2.13;;;1.30;;
10216;SDS011;5152;59.674;16.838;2022-10-31T00:11:12;1.33;;;1.20;;
10216;SDS011;5152;59.674;16.838;2022-10-31T00:13:39;2.57;;;1.47;;
10216;SDS011;5152;59.674;16.838;2022-10-31T00:16:12;1.40;;;1.10;;
10216;SDS011;5152;59.674;16.838;2022-10-31T00:18:41;3.00;;;1.60;;
10216;SDS011;5152;59.674;16.838;2022-10-31T00:21:08;1.30;;;1.10;;
10216;SDS011;5152;59.674;16.838;2022-10-31T00:23:35;2.57;;;1.37;;
10216;SDS011;5152;59.674;16.838;2022-10-31T00:26:02;1.40;;;1.20;;
10216;SDS011;5152;59.674;16.838;2022-10-31T00:28:30;2.50;;;1.50;;
10216;SDS011;5152;59.674;16.838;2022-10-31T00:30:58;1.27;;;1.10;;
10216;SDS011;5152;59.674;16.838;2022-10-31T00:33:25;1.43;;;1.10;;
10216;SDS011;5152;59.674;16.838;2022-10-31T00:35:53;3.97;;;1.33;;
10216;SDS011;5152;59.674;16.838;2022-10-31T00:38:20;2.07;;;1.50;;
10216;SDS011;5152;59.674;16.838;2022-10-31T00:40:47;1.60;;;1.20;;
10216;SDS011;5152;59.674;16.838;2022-10-31T00:43:13;1.40;;;1.27;;
10216;SDS011;5152;59.674;16.838;2022-10-31T00:45:40;1.23;;;1.10;;
10216;SDS011;5152;59.674;16.838;2022-10-31T00:48:07;2.50;;;1.50;;
10216;SDS011;5152;59.674;16.838;2022-10-31T00:50:34;1.70;;;1.40;;
10216;SDS011;5152;59.674;16.838;2022-10-31T00:53:02;3.57;;;1.57;;
10216;SDS011;5152;59.674;16.838;2022-10-31T00:55:29;3.67;;;1.50;;
10216;SDS011;5152;59.674;16.838;2022-10-31T00:57:56;1.30;;;1.20;;
10216;SDS011;5152;59.674;16.838;2022-10-31T01:00:23;1.53;;;1.30;;
10216;SDS011;5152;59.674;16.838;2022-10-31T01:02:49;1.17;;;1.07;;
10216;SDS011;5152;59.674;16.838;2022-10-31T01:05:16;1.80;;;1.00;;
10216;SDS011;5152;59.674;16.838;2022-10-31T01:07:43;1.33;;;1.20;;
10216;SDS011;5152;59.674;16.838;2022-10-31T01:10:11;1.30;;;1.20;;
10216;SDS011;5152;59.674;16.838;2022-10-31T01:12:38;1.43;;;1.20;;
10216;SDS011;5152;59.674;16.838;2022-10-31T01:15:06;1.43;;;1.20;;
10216;SDS011;5152;59.674;16.838;2022-10-31T01:17:34;1.40;;;1.30;;
10216;SDS011;5152;59.674;16.838;2022-10-31T01:20:00;1.43;;;0.93;;
10216;SDS011;5152;59.674;16.838;2022-10-31T01:22:27;1.47;;;1.30;;
10216;SDS011;5152;59.674;16.838;2022-10-31T01:24:54;1.87;;;1.13;;
10216;SDS011;5152;59.674;16.838;2022-10-31T01:27:22;1.40;;;0.97;;
10216;SDS011;5152;59.674;16.838;2022-10-31T01:29:49;1.03;;;0.97;;
10216;SDS011;5152;59.674;16.838;2022-10-31T01:32:15;2.27;;;1.50;;
10216;SDS011;5152;59.674;16.838;2022-10-31T01:34:42;1.73;;;1.27;;
10216;SDS011;5152;59.674;16.838;2022-10-31T01:37:09;1.90;;;1.60;;
10216;SDS011;5152;59.674;16.838;2022-10-31T01:39:35;1.93;;;1.20;;
10216;SDS011;5152;59.674;16.838;2022-10-31T01:42:02;1.57;;;1.23;;
10216;SDS011;5152;59.674;16.838;2022-10-31T01:47:19;3.37;;;1.40;;
10216;SDS011;5152;59.674;16.838;2022-10-31T01:49:51;2.53;;;1.47;;
10216;SDS011;5152;59.674;16.838;2022-10-31T01:52:20;1.63;;;1.30;;
10216;SDS011;5152;59.674;16.838;2022-10-31T01:54:50;1.20;;;0.93;;
10216;SDS011;5152;59.674;16.838;2022-10-31T01:57:19;1.40;;;1.30;;
10216;SDS011;5152;59.674;16.838;2022-10-31T01:59:47;1.80;;;1.20;;
10216;SDS011;5152;59.674;16.838;2022-10-31T02:02:16;1.10;;;1.00;;
10216;SDS011;5152;59.674;16.838;2022-10-31T02:04:44;1.27;;;1.10;;
10216;SDS011;5152;59.674;16.838;2022-10-31T02:07:12;1.20;;;1.10;;
10216;SDS011;5152;59.674;16.838;2022-10-31T02:09:40;3.10;;;1.10;;
10216;SDS011;5152;59.674;16.838;2022-10-31T02:12:08;2.80;;;1.30;;
10216;SDS011;5152;59.674;16.838;2022-10-31T02:14:36;2.53;;;1.57;;
10216;SDS011;5152;59.674;16.838;2022-10-31T02:17:04;4.13;;;1.70;;
10216;SDS011;5152;59.674;16.838;2022-10-31T02:19:33;1.20;;;1.07;;
10216;SDS011;5152;59.674;16.838;2022-10-31T02:22:02;1.00;;;1.00;;
10216;SDS011;5152;59.674;16.838;2022-10-31T02:30:32;1.67;;;0.97;;
10216;SDS011;5152;59.674;16.838;2022-10-31T02:33:14;1.83;;;1.27;;
10216;SDS011;5152;59.674;16.838;2022-10-31T02:35:48;0.80;;;0.80;;
10216;SDS011;5152;59.674;16.838;2022-10-31T02:38:23;0.77;;;0.77;;
10216;SDS011;5152;59.674;16.838;2022-10-31T02:40:56;1.20;;;1.10;;
10216;SDS011;5152;59.674;16.838;2022-10-31T02:43:28;1.63;;;0.83;;
10216;SDS011;5152;59.674;16.838;2022-10-31T02:46:01;1.17;;;0.97;;
10216;SDS011;5152;59.674;16.838;2022-10-31T02:48:32;1.63;;;1.10;;
10216;SDS011;5152;59.674;16.838;2022-10-31T02:51:01;3.03;;;1.10;;
10216;SDS011;5152;59.674;16.838;2022-10-31T02:53:31;2.30;;;0.90;;
10216;SDS011;5152;59.674;16.838;2022-10-31T02:56:00;1.53;;;0.80;;
10216;SDS011;5152;59.674;16.838;2022-10-31T02:58:29;1.57;;;0.70;;
10216;SDS011;5152;59.674;16.838;2022-10-31T03:01:15;1.70;;;0.80;;
10216;SDS011;5152;59.674;16.838;2022-10-31T03:03:58;0.70;;;0.70;;
10216;SDS011;5152;59.674;16.838;2022-10-31T03:06:32;5.03;;;1.40;;
10216;SDS011;5152;59.674;16.838;2022-10-31T03:09:02;2.43;;;1.47;;
10216;SDS011;5152;59.674;16.838;2022-10-31T03:11:32;2.40;;;1.30;;
10216;SDS011;5152;59.674;16.838;2022-10-31T03:14:09;1.17;;;1.10;;
10216;SDS011;5152;59.674;16.838;2022-10-31T03:16:38;2.63;;;1.87;;
10216;SDS011;5152;59.674;16.838;2022-10-31T03:19:09;1.40;;;0.97;;
10216;SDS011;5152;59.674;16.838;2022-10-31T03:21:38;1.37;;;0.90;;
10216;SDS011;5152;59.674;16.838;2022-10-31T03:24:06;1.00;;;0.80;;
10216;SDS011;5152;59.674;16.838;2022-10-31T03:26:35;1.53;;;1.10;;
10216;SDS011;5152;59.674;16.838;2022-10-31T03:29:02;1.10;;;0.97;;
10216;SDS011;5152;59.674;16.838;2022-10-31T03:31:32;0.70;;;0.70;;
10216;SDS011;5152;59.674;16.838;2022-10-31T03:34:00;1.03;;;0.93;;
10216;SDS011;5152;59.674;16.838;2022-10-31T03:36:28;0.97;;;0.93;;
10216;SDS011;5152;59.674;16.838;2022-10-31T03:38:56;1.10;;;1.00;;
10216;SDS011;5152;59.674;16.838;2022-10-31T03:41:23;1.23;;;0.90;;
10216;SDS011;5152;59.674;16.838;2022-10-31T03:43:54;1.23;;;1.10;;
10216;SDS011;5152;59.674;16.838;2022-10-31T03:46:23;0.67;;;0.67;;
10216;SDS011;5152;59.674;16.838;2022-10-31T03:48:50;0.80;;;0.80;;
10216;SDS011;5152;59.674;16.838;2022-10-31T03:51:18;0.83;;;0.70;;
10216;SDS011;5152;59.674;16.838;2022-10-31T03:53:52;0.90;;;0.73;;
10216;SDS011;5152;59.674;16.838;2022-10-31T03:56:22;1.33;;;0.93;;
10216;SDS011;5152;59.674;16.838;2022-10-31T03:58:53;0.73;;;0.73;;
10216;SDS011;5152;59.674;16.838;2022-10-31T04:01:25;1.53;;;1.30;;
10216;SDS011;5152;59.674;16.838;2022-10-31T04:03:52;2.53;;;1.20;;
10216;SDS011;5152;59.674;16.838;2022-10-31T04:06:20;2.47;;;1.10;;
10216;SDS011;5152;59.674;16.838;2022-10-31T04:08:49;1.13;;;0.80;;
10216;SDS011;5152;59.674;16.838;2022-10-31T04:11:19;1.07;;;0.93;;
10216;SDS011;5152;59.674;16.838;2022-10-31T04:13:48;0.70;;;0.70;;
10216;SDS011;5152;59.674;16.838;2022-10-31T04:16:15;1.73;;;0.63;;
10216;SDS011;5152;59.674;16.838;2022-10-31T04:18:43;0.70;;;0.70;;
10216;SDS011;5152;59.674;16.838;2022-10-31T04:21:10;0.77;;;0.70;;
10216;SDS011;5152;59.674;16.838;2022-10-31T04:23:36;1.60;;;0.70;;
10216;SDS011;5152;59.674;16.838;2022-10-31T04:26:05;0.87;;;0.70;;
10216;SDS011;5152;59.674;16.838;2022-10-31T04:28:31;1.10;;;0.80;;
10216;SDS011;5152;59.674;16.838;2022-10-31T04:30:59;1.00;;;0.90;;
10216;SDS011;5152;59.674;16.838;2022-10-31T04:33:26;0.97;;;0.80;;
10216;SDS011;5152;59.674;16.838;2022-10-31T04:35:52;1.20;;;0.60;;
10216;SDS011;5152;59.674;16.838;2022-10-31T04:38:19;1.17;;;0.83;;
10216;SDS011;5152;59.674;16.838;2022-10-31T04:40:46;1.20;;;1.10;;
10216;SDS011;5152;59.674;16.838;2022-10-31T04:43:14;0.60;;;0.60;;
10216;SDS011;5152;59.674;16.838;2022-10-31T04:45:40;0.67;;;0.60;;
10216;SDS011;5152;59.674;16.838;2022-10-31T04:48:07;1.13;;;0.80;;
10216;SDS011;5152;59.674;16.838;2022-10-31T04:50:34;1.07;;;0.97;;
10216;SDS011;5152;59.674;16.838;2022-10-31T04:53:00;0.60;;;0.60;;
10216;SDS011;5152;59.674;16.838;2022-10-31T04:55:27;0.60;;;0.60;;
10216;SDS011;5152;59.674;16.838;2022-10-31T04:57:54;0.90;;;0.80;;
10216;SDS011;5152;59.674;16.838;2022-10-31T05:00:22;1.60;;;0.73;;
10216;SDS011;5152;59.674;16.838;2022-10-31T05:02:50;1.57;;;1.00;;
10216;SDS011;5152;59.674;16.838;2022-10-31T05:05:17;1.57;;;1.10;;
10216;SDS011;5152;59.674;16.838;2022-10-31T05:07:47;0.97;;;0.80;;
10216;SDS011;5152;59.674;16.838;2022-10-31T05:10:15;1.03;;;0.87;;
10216;SDS011;5152;59.674;16.838;2022-10-31T05:12:46;0.73;;;0.53;;
10216;SDS011;5152;59.674;16.838;2022-10-31T05:15:13;1.10;;;0.70;;
10216;SDS011;5152;59.674;16.838;2022-10-31T05:17:42;0.80;;;0.60;;
10216;SDS011;5152;59.674;16.838;2022-10-31T05:20:09;2.60;;;1.20;;
10216;SDS011;5152;59.674;16.838;2022-10-31T05:22:36;0.73;;;0.60;;
10216;SDS011;5152;59.674;16.838;2022-10-31T05:25:03;4.47;;;1.70;;
10216;SDS011;5152;59.674;16.838;2022-10-31T05:27:30;1.10;;;0.63;;
10216;SDS011;5152;59.674;16.838;2022-10-31T05:29:57;1.20;;;0.77;;
10216;SDS011;5152;59.674;16.838;2022-10-31T05:32:24;0.90;;;0.90;;
10216;SDS011;5152;59.674;16.838;2022-10-31T05:34:52;1.50;;;1.10;;
10216;SDS011;5152;59.674;16.838;2022-10-31T05:37:18;2.60;;;1.23;;
10216;SDS011;5152;59.674;16.838;2022-10-31T05:39:45;8.70;;;0.97;;
10216;SDS011;5152;59.674;16.838;2022-10-31T05:42:12;2.17;;;0.90;;
10216;SDS011;5152;59.674;16.838;2022-10-31T05:44:39;2.70;;;1.10;;
10216;SDS011;5152;59.674;16.838;2022-10-31T05:47:06;1.07;;;0.90;;
10216;SDS011;5152;59.674;16.838;2022-10-31T05:49:32;0.97;;;0.87;;
10216;SDS011;5152;59.674;16.838;2022-10-31T05:52:00;0.67;;;0.63;;
10216;SDS011;5152;59.674;16.838;2022-10-31T05:54:27;0.83;;;0.70;;
10216;SDS011;5152;59.674;16.838;2022-10-31T05:56:54;1.67;;;1.03;;
10216;SDS011;5152;59.674;16.838;2022-10-31T05:59:21;2.03;;;1.10;;
10216;SDS011;5152;59.674;16.838;2022-10-31T06:01:47;2.17;;;0.70;;
10216;SDS011;5152;59.674;16.838;2022-10-31T06:04:14;1.27;;;0.93;;
10216;SDS011;5152;59.674;16.838;2022-10-31T06:06:41;2.27;;;1.00;;
10216;SDS011;5152;59.674;16.838;2022-10-31T06:09:09;1.67;;;0.80;;
10216;SDS011;5152;59.674;16.838;2022-10-31T06:11:36;1.17;;;0.80;;
10216;SDS011;5152;59.674;16.838;2022-10-31T06:14:02;0.93;;;0.67;;
10216;SDS011;5152;59.674;16.838;2022-10-31T06:16:29;1.80;;;0.70;;
10216;SDS011;5152;59.674;16.838;2022-10-31T06:18:56;1.27;;;0.80;;
10216;SDS011;5152;59.674;16.838;2022-10-31T06:21:23;1.13;;;0.80;;
10216;SDS011;5152;59.674;16.838;2022-10-31T06:23:50;0.90;;;0.67;;
10216;SDS011;5152;59.674;16.838;2022-10-31T06:26:18;2.83;;;0.70;;
10216;SDS011;5152;59.674;16.838;2022-10-31T06:28:45;3.33;;;1.07;;
10216;SDS011;5152;59.674;16.838;2022-10-31T06:31:12;1.33;;;1.17;;
10216;SDS011;5152;59.674;16.838;2022-10-31T06:33:40;0.83;;;0.73;;
10216;SDS011;5152;59.674;16.838;2022-10-31T06:36:07;1.60;;;1.00;;
10216;SDS011;5152;59.674;16.838;2022-10-31T06:38:34;1.47;;;0.70;;
10216;SDS011;5152;59.674;16.838;2022-10-31T06:41:01;3.23;;;1.10;;
10216;SDS011;5152;59.674;16.838;2022-10-31T06:43:30;0.97;;;0.83;;
10216;SDS011;5152;59.674;16.838;2022-10-31T06:45:57;0.87;;;0.80;;
10216;SDS011;5152;59.674;16.838;2022-10-31T06:48:27;6.17;;;1.70;;
10216;SDS011;5152;59.674;16.838;2022-10-31T06:50:56;2.23;;;1.10;;
10216;SDS011;5152;59.674;16.838;2022-10-31T06:53:23;1.70;;;0.93;;
10216;SDS011;5152;59.674;16.838;2022-10-31T06:55:50;4.93;;;1.60;;
10216;SDS011;5152;59.674;16.838;2022-10-31T06:58:17;5.53;;;1.60;;
10216;SDS011;5152;59.674;16.838;2022-10-31T07:00:45;2.27;;;0.77;;
10216;SDS011;5152;59.674;16.838;2022-10-31T07:03:12;1.90;;;1.57;;
10216;SDS011;5152;59.674;16.838;2022-10-31T07:05:40;2.00;;;1.10;;
10216;SDS011;5152;59.674;16.838;2022-10-31T07:08:08;1.40;;;0.97;;
10216;SDS011;5152;59.674;16.838;2022-10-31T07:10:36;1.53;;;1.10;;
10216;SDS011;5152;59.674;16.838;2022-10-31T07:13:04;0.70;;;0.60;;
10216;SDS011;5152;59.674;16.838;2022-10-31T07:15:33;1.97;;;1.30;;
10216;SDS011;5152;59.674;16.838;2022-10-31T07:18:02;2.77;;;1.00;;
10216;SDS011;5152;59.674;16.838;2022-10-31T07:20:29;3.23;;;1.17;;
10216;SDS011;5152;59.674;16.838;2022-10-31T07:22:56;2.43;;;0.97;;
10216;SDS011;5152;59.674;16.838;2022-10-31T07:25:24;1.30;;;1.10;;
10216;SDS011;5152;59.674;16.838;2022-10-31T07:27:51;1.90;;;0.90;;
10216;SDS011;5152;59.674;16.838;2022-10-31T07:30:17;1.90;;;0.90;;
10216;SDS011;5152;59.674;16.838;2022-10-31T07:32:45;2.23;;;1.00;;
10216;SDS011;5152;59.674;16.838;2022-10-31T07:35:14;3.00;;;1.37;;
10216;SDS011;5152;59.674;16.838;2022-10-31T07:37:42;7.33;;;1.97;;
10216;SDS011;5152;59.674;16.838;2022-10-31T07:40:10;2.53;;;1.13;;
10216;SDS011;5152;59.674;16.838;2022-10-31T07:42:37;3.00;;;1.37;;
10216;SDS011;5152;59.674;16.838;2022-10-31T07:45:05;3.90;;;1.10;;
10216;SDS011;5152;59.674;16.838;2022-10-31T07:47:37;1.30;;;0.83;;
10216;SDS011;5152;59.674;16.838;2022-10-31T07:50:05;4.17;;;1.20;;
10216;SDS011;5152;59.674;16.838;2022-10-31T07:52:33;1.60;;;1.10;;
10216;SDS011;5152;59.674;16.838;2022-10-31T07:55:00;7.60;;;1.00;;
10216;SDS011;5152;59.674;16.838;2022-10-31T07:57:28;2.03;;;0.80;;
10216;SDS011;5152;59.674;16.838;2022-10-31T07:59:54;2.40;;;1.27;;
10216;SDS011;5152;59.674;16.838;2022-10-31T08:02:21;4.23;;;1.30;;
10216;SDS011;5152;59.674;16.838;2022-10-31T08:04:48;1.30;;;1.13;;
10216;SDS011;5152;59.674;16.838;2022-10-31T08:07:15;3.57;;;1.43;;
10216;SDS011;5152;59.674;16.838;2022-10-31T08:09:43;2.07;;;1.20;;
10216;SDS011;5152;59.674;16.838;2022-10-31T08:12:10;2.47;;;1.43;;
10216;SDS011;5152;59.674;16.838;2022-10-31T08:14:36;2.47;;;1.20;;
10216;SDS011;5152;59.674;16.838;2022-10-31T08:17:03;2.63;;;1.10;;
10216;SDS011;5152;59.674;16.838;2022-10-31T08:19:30;1.83;;;0.97;;
10216;SDS011;5152;59.674;16.838;2022-10-31T08:21:56;4.17;;;1.50;;
10216;SDS011;5152;59.674;16.838;2022-10-31T08:24:23;3.20;;;1.33;;
10216;SDS011;5152;59.674;16.838;2022-10-31T08:26:51;8.47;;;2.90;;
10216;SDS011;5152;59.674;16.838;2022-10-31T08:29:18;2.87;;;1.63;;
10216;SDS011;5152;59.674;16.838;2022-10-31T08:31:45;2.83;;;1.50;;
10216;SDS011;5152;59.674;16.838;2022-10-31T08:34:12;9.30;;;2.60;;
10216;SDS011;5152;59.674;16.838;2022-10-31T08:36:38;4.93;;;2.10;;
10216;SDS011;5152;59.674;16.838;2022-10-31T08:39:05;3.97;;;1.50;;
10216;SDS011;5152;59.674;16.838;2022-10-31T08:41:32;3.80;;;1.57;;
10216;SDS011;5152;59.674;16.838;2022-10-31T08:44:01;5.53;;;1.50;;
10216;SDS011;5152;59.674;16.838;2022-10-31T08:46:28;2.83;;;1.40;;
10216;SDS011;5152;59.674;16.838;2022-10-31T08:48:55;5.63;;;2.13;;
10216;SDS011;5152;59.674;16.838;2022-10-31T08:51:22;3.83;;;1.50;;
10216;SDS011;5152;59.674;16.838;2022-10-31T08:53:48;6.70;;;2.03;;
10216;SDS011;5152;59.674;16.838;2022-10-31T08:56:15;13.23;;;4.20;;
10216;SDS011;5152;59.674;16.838;2022-10-31T08:58:42;12.17;;;3.63;;
10216;SDS011;5152;59.674;16.838;2022-10-31T09:01:10;11.67;;;2.00;;
10216;SDS011;5152;59.674;16.838;2022-10-31T09:03:37;9.57;;;2.33;;
10216;SDS011;5152;59.674;16.838;2022-10-31T09:06:04;8.27;;;1.47;;
10216;SDS011;5152;59.674;16.838;2022-10-31T09:08:34;12.90;;;3.07;;
10216;SDS011;5152;59.674;16.838;2022-10-31T09:11:01;9.53;;;3.87;;
10216;SDS011;5152;59.674;16.838;2022-10-31T09:13:28;9.63;;;4.73;;
10216;SDS011;5152;59.674;16.838;2022-10-31T09:15:56;9.93;;;1.93;;
10216;SDS011;5152;59.674;16.838;2022-10-31T09:18:25;4.60;;;1.63;;
10216;SDS011;5152;59.674;16.838;2022-10-31T09:20:52;4.83;;;1.80;;
10216;SDS011;5152;59.674;16.838;2022-10-31T09:23:20;5.70;;;1.60;;
10216;SDS011;5152;59.674;16.838;2022-10-31T09:25:48;5.37;;;3.23;;
10216;SDS011;5152;59.674;16.838;2022-10-31T09:28:17;8.83;;;2.13;;
10216;SDS011;5152;59.674;16.838;2022-10-31T09:30:45;6.90;;;1.97;;
10216;SDS011;5152;59.674;16.838;2022-10-31T09:33:13;7.33;;;2.07;;
10216;SDS011;5152;59.674;16.838;2022-10-31T09:35:41;3.43;;;1.70;;
10216;SDS011;5152;59.674;16.838;2022-10-31T09:38:08;5.63;;;3.13;;
10216;SDS011;5152;59.674;16.838;2022-10-31T09:40:36;3.80;;;1.50;;
10216;SDS011;5152;59.674;16.838;2022-10-31T09:43:08;3.03;;;1.83;;
10216;SDS011;5152;59.674;16.838;2022-10-31T09:45:41;6.30;;;2.60;;
10216;SDS011;5152;59.674;16.838;2022-10-31T09:48:16;4.60;;;2.37;;
10216;SDS011;5152;59.674;16.838;2022-10-31T09:50:53;2.17;;;1.73;;
10216;SDS011;5152;59.674;16.838;2022-10-31T09:53:23;4.77;;;1.90;;
10216;SDS011;5152;59.674;16.838;2022-10-31T09:55:53;4.70;;;1.53;;
10216;SDS011;5152;59.674;16.838;2022-10-31T09:58:20;5.50;;;1.67;;
10216;SDS011;5152;59.674;16.838;2022-10-31T10:00:50;5.50;;;2.00;;
10216;SDS011;5152;59.674;16.838;2022-10-31T10:03:21;2.40;;;1.40;;
10216;SDS011;5152;59.674;16.838;2022-10-31T10:05:57;3.10;;;1.93;;
10216;SDS011;5152;59.674;16.838;2022-10-31T10:08:32;4.57;;;2.10;;
10216;SDS011;5152;59.674;16.838;2022-10-31T10:11:02;7.00;;;1.67;;
10216;SDS011;5152;59.674;16.838;2022-10-31T10:13:48;5.27;;;2.50;;
10216;SDS011;5152;59.674;16.838;2022-10-31T10:16:25;2.40;;;1.40;;
10216;SDS011;5152;59.674;16.838;2022-10-31T10:19:01;3.20;;;1.33;;
10216;SDS011;5152;59.674;16.838;2022-10-31T10:21:38;3.80;;;1.73;;
10216;SDS011;5152;59.674;16.838;2022-10-31T10:24:14;4.07;;;1.50;;
10216;SDS011;5152;59.674;16.838;2022-10-31T10:26:47;8.60;;;4.53;;
10216;SDS011;5152;59.674;16.838;2022-10-31T10:29:25;3.60;;;1.63;;
10216;SDS011;5152;59.674;16.838;2022-10-31T10:31:56;6.77;;;4.47;;
10216;SDS011;5152;59.674;16.838;2022-10-31T10:34:26;3.47;;;1.50;;
10216;SDS011;5152;59.674;16.838;2022-10-31T10:36:57;5.10;;;2.87;;
10216;SDS011;5152;59.674;16.838;2022-10-31T10:39:27;3.23;;;1.67;;
10216;SDS011;5152;59.674;16.838;2022-10-31T10:41:57;5.13;;;2.53;;
10216;SDS011;5152;59.674;16.838;2022-10-31T10:44:43;4.53;;;2.87;;
10216;SDS011;5152;59.674;16.838;2022-10-31T10:47:31;12.03;;;3.80;;
10216;SDS011;5152;59.674;16.838;2022-10-31T10:50:06;7.07;;;1.70;;
10216;SDS011;5152;59.674;16.838;2022-10-31T10:52:39;4.33;;;2.30;;
10216;SDS011;5152;59.674;16.838;2022-10-31T10:55:13;8.23;;;4.90;;
10216;SDS011;5152;59.674;16.838;2022-10-31T10:57:48;6.57;;;3.37;;
10216;SDS011;5152;59.674;16.838;2022-10-31T11:00:22;6.23;;;2.77;;
10216;SDS011;5152;59.674;16.838;2022-10-31T11:02:50;2.63;;;1.67;;
10216;SDS011;5152;59.674;16.838;2022-10-31T11:05:22;12.47;;;6.43;;
10216;SDS011;5152;59.674;16.838;2022-10-31T11:07:52;6.67;;;2.50;;
10216;SDS011;5152;59.674;16.838;2022-10-31T11:10:19;5.20;;;2.20;;
10216;SDS011;5152;59.674;16.838;2022-10-31T11:12:56;5.67;;;2.77;;
10216;SDS011;5152;59.674;16.838;2022-10-31T11:15:26;11.40;;;5.93;;
10216;SDS011;5152;59.674;16.838;2022-10-31T11:17:54;10.33;;;5.03;;
10216;SDS011;5152;59.674;16.838;2022-10-31T11:20:26;8.27;;;4.57;;
10216;SDS011;5152;59.674;16.838;2022-10-31T11:23:05;5.43;;;2.40;;
10216;SDS011;5152;59.674;16.838;2022-10-31T11:25:47;3.53;;;2.20;;
10216;SDS011;5152;59.674;16.838;2022-10-31T11:28:15;4.13;;;2.00;;
10216;SDS011;5152;59.674;16.838;2022-10-31T11:30:43;4.93;;;2.30;;
10216;SDS011;5152;59.674;16.838;2022-10-31T11:33:13;10.90;;;5.70;;
10216;SDS011;5152;59.674;16.838;2022-10-31T11:35:44;4.40;;;1.87;;
10216;SDS011;5152;59.674;16.838;2022-10-31T11:38:14;8.27;;;4.80;;
10216;SDS011;5152;59.674;16.838;2022-10-31T11:40:51;7.30;;;4.10;;
10216;SDS011;5152;59.674;16.838;2022-10-31T11:43:21;7.77;;;2.40;;
10216;SDS011;5152;59.674;16.838;2022-10-31T11:45:48;4.07;;;2.03;;
10216;SDS011;5152;59.674;16.838;2022-10-31T11:48:16;3.27;;;1.90;;
10216;SDS011;5152;59.674;16.838;2022-10-31T11:50:47;5.67;;;2.40;;
10216;SDS011;5152;59.674;16.838;2022-10-31T11:53:16;4.73;;;1.93;;
10216;SDS011;5152;59.674;16.838;2022-10-31T11:55:45;7.70;;;4.40;;
10216;SDS011;5152;59.674;16.838;2022-10-31T11:58:22;3.53;;;2.07;;
10216;SDS011;5152;59.674;16.838;2022-10-31T12:00:51;4.40;;;2.20;;
10216;SDS011;5152;59.674;16.838;2022-10-31T12:03:25;4.17;;;2.20;;
10216;SDS011;5152;59.674;16.838;2022-10-31T12:05:56;12.67;;;7.27;;
10216;SDS011;5152;59.674;16.838;2022-10-31T12:08:29;4.43;;;1.70;;
10216;SDS011;5152;59.674;16.838;2022-10-31T12:11:00;2.90;;;1.80;;
10216;SDS011;5152;59.674;16.838;2022-10-31T12:13:33;2.97;;;2.00;;
10216;SDS011;5152;59.674;16.838;2022-10-31T12:16:04;4.40;;;1.77;;
10216;SDS011;5152;59.674;16.838;2022-10-31T12:18:39;3.03;;;2.10;;
10216;SDS011;5152;59.674;16.838;2022-10-31T12:21:21;4.37;;;2.50;;
10216;SDS011;5152;59.674;16.838;2022-10-31T12:24:00;8.93;;;2.87;;
10216;SDS011;5152;59.674;16.838;2022-10-31T12:26:34;3.10;;;2.10;;
10216;SDS011;5152;59.674;16.838;2022-10-31T12:29:12;8.20;;;3.63;;
10216;SDS011;5152;59.674;16.838;2022-10-31T12:31:47;5.07;;;2.30;;
10216;SDS011;5152;59.674;16.838;2022-10-31T12:37:26;3.80;;;1.70;;
10216;SDS011;5152;59.674;16.838;2022-10-31T12:40:07;4.27;;;2.20;;
10216;SDS011;5152;59.674;16.838;2022-10-31T12:42:48;3.83;;;1.70;;
10216;SDS011;5152;59.674;16.838;2022-10-31T12:48:24;6.00;;;2.37;;
10216;SDS011;5152;59.674;16.838;2022-10-31T12:51:15;3.83;;;1.97;;
10216;SDS011;5152;59.674;16.838;2022-10-31T12:53:52;4.37;;;2.10;;
10216;SDS011;5152;59.674;16.838;2022-10-31T12:56:31;7.90;;;4.07;;
10216;SDS011;5152;59.674;16.838;2022-10-31T12:59:07;4.30;;;1.90;;
10216;SDS011;5152;59.674;16.838;2022-10-31T13:01:38;5.60;;;2.97;;
10216;SDS011;5152;59.674;16.838;2022-10-31T13:04:10;4.37;;;1.90;;
10216;SDS011;5152;59.674;16.838;2022-10-31T13:06:40;3.00;;;2.03;;
10216;SDS011;5152;59.674;16.838;2022-10-31T13:09:10;4.30;;;1.97;;
10216;SDS011;5152;59.674;16.838;2022-10-31T13:11:41;3.23;;;1.60;;
10216;SDS011;5152;59.674;16.838;2022-10-31T13:14:11;3.47;;;1.70;;
10216;SDS011;5152;59.674;16.838;2022-10-31T13:16:42;5.50;;;2.53;;
10216;SDS011;5152;59.674;16.838;2022-10-31T13:19:13;2.80;;;1.50;;
10216;SDS011;5152;59.674;16.838;2022-10-31T13:21:45;2.30;;;1.47;;
10216;SDS011;5152;59.674;16.838;2022-10-31T13:24:18;2.90;;;2.53;;
10216;SDS011;5152;59.674;16.838;2022-10-31T13:26:49;9.80;;;4.63;;
10216;SDS011;5152;59.674;16.838;2022-10-31T13:29:18;3.33;;;1.50;;
10216;SDS011;5152;59.674;16.838;2022-10-31T13:31:48;4.63;;;2.03;;
10216;SDS011;5152;59.674;16.838;2022-10-31T13:34:19;5.20;;;2.60;;
10216;SDS011;5152;59.674;16.838;2022-10-31T13:36:53;3.53;;;1.70;;
10216;SDS011;5152;59.674;16.838;2022-10-31T13:39:29;1.87;;;1.57;;
10216;SDS011;5152;59.674;16.838;2022-10-31T13:42:03;6.00;;;2.83;;
10216;SDS011;5152;59.674;16.838;2022-10-31T13:44:35;8.53;;;3.50;;
10216;SDS011;5152;59.674;16.838;2022-10-31T13:47:03;5.90;;;2.30;;
10216;SDS011;5152;59.674;16.838;2022-10-31T13:49:45;1.30;;;1.20;;
10216;SDS011;5152;59.674;16.838;2022-10-31T13:52:16;2.20;;;1.63;;
10216;SDS011;5152;59.674;16.838;2022-10-31T13:54:49;3.23;;;1.57;;
10216;SDS011;5152;59.674;16.838;2022-10-31T13:57:24;2.93;;;1.70;;
10216;SDS011;5152;59.674;16.838;2022-10-31T13:59:56;10.47;;;3.80;;
10216;SDS011;5152;59.674;16.838;2022-10-31T14:02:25;7.43;;;2.33;;
10216;SDS011;5152;59.674;16.838;2022-10-31T14:04:55;6.93;;;3.20;;
10216;SDS011;5152;59.674;16.838;2022-10-31T14:07:23;7.00;;;2.90;;
10216;SDS011;5152;59.674;16.838;2022-10-31T14:09:52;9.17;;;3.90;;
10216;SDS011;5152;59.674;16.838;2022-10-31T14:12:26;9.13;;;3.67;;
10216;SDS011;5152;59.674;16.838;2022-10-31T14:14:56;12.20;;;4.93;;
10216;SDS011;5152;59.674;16.838;2022-10-31T14:17:25;7.23;;;3.77;;
10216;SDS011;5152;59.674;16.838;2022-10-31T14:23:13;3.97;;;1.90;;
10216;SDS011;5152;59.674;16.838;2022-10-31T14:26:05;8.37;;;2.40;;
10216;SDS011;5152;59.674;16.838;2022-10-31T14:28:45;9.87;;;2.40;;
10216;SDS011;5152;59.674;16.838;2022-10-31T14:31:31;4.00;;;2.23;;
10216;SDS011;5152;59.674;16.838;2022-10-31T14:34:02;5.67;;;3.10;;
10216;SDS011;5152;59.674;16.838;2022-10-31T14:36:46;6.60;;;1.97;;
10216;SDS011;5152;59.674;16.838;2022-10-31T14:39:17;6.33;;;2.50;;
10216;SDS011;5152;59.674;16.838;2022-10-31T14:41:53;11.57;;;2.60;;
10216;SDS011;5152;59.674;16.838;2022-10-31T14:47:34;3.13;;;2.20;;
10216;SDS011;5152;59.674;16.838;2022-10-31T14:50:07;3.17;;;2.10;;
10216;SDS011;5152;59.674;16.838;2022-10-31T14:52:44;7.23;;;2.77;;
10216;SDS011;5152;59.674;16.838;2022-10-31T14:55:14;7.77;;;3.70;;
10216;SDS011;5152;59.674;16.838;2022-10-31T14:57:43;3.57;;;2.07;;
10216;SDS011;5152;59.674;16.838;2022-10-31T15:00:15;4.60;;;2.03;;
10216;SDS011;5152;59.674;16.838;2022-10-31T15:02:46;3.50;;;1.97;;
10216;SDS011;5152;59.674;16.838;2022-10-31T15:05:18;5.33;;;2.27;;
10216;SDS011;5152;59.674;16.838;2022-10-31T15:07:51;3.67;;;1.93;;
10216;SDS011;5152;59.674;16.838;2022-10-31T15:10:22;5.20;;;2.63;;
10216;SDS011;5152;59.674;16.838;2022-10-31T15:12:50;5.17;;;2.10;;
10216;SDS011;5152;59.674;16.838;2022-10-31T15:15:19;2.73;;;1.97;;
10216;SDS011;5152;59.674;16.838;2022-10-31T15:17:49;4.87;;;2.50;;
10216;SDS011;5152;59.674;16.838;2022-10-31T15:20:19;2.90;;;2.30;;
10216;SDS011;5152;59.674;16.838;2022-10-31T15:22:48;9.40;;;3.27;;
10216;SDS011;5152;59.674;16.838;2022-10-31T15:25:17;4.87;;;2.80;;